Latest Weather Observations for Clare

IDS60801

Issued at 1:31 pm CST Friday 29 May 2015 (issued every 30 minutes, with the page automatically refreshed every 10 minutes)

About weather observations | Map of weather stations | Latest weather observations for SA | Other Formats
Station Details ID: 021131 Name: CLARE HIGH SCHOOL Lat: -33.82 Lon: 138.59 Height: 395.0 m
Data from the previous 72 hours. | See also: Recent months at Clare
Date/Time
CST
Temp
°C
App
Temp
°C
Dew
Point
Rel
Hum
%
Delta-T
°C
Wind Press
QNH
hPa
Press
MSL
hPa
Rain
since 9 am
mm
Dir
 
Spd
km/h
Gust
km/h
Spd
kts
Gust
kts
29/01:30pm 12.8 10.5 5.9 63 3.3 SW 7 11 4 6 1023.7 - 0.2
29/01:00pm 12.7 10.6 6.5 66 3.0 WSW 7 15 4 8 1024.0 - 0.0
29/12:30pm 12.9 9.9 6.0 63 3.3 W 11 17 6 9 1024.2 - 0.0
29/12:00pm 12.6 9.2 6.0 64 3.2 W 13 22 7 12 1024.5 1024.5 0.0
29/11:30am 12.7 9.3 5.8 63 3.3 WSW 13 20 7 11 1025.0 - 0.0
29/11:00am 12.3 9.3 6.1 66 3.0 WSW 11 17 6 9 1025.1 - 0.0
29/10:30am 12.2 9.4 6.9 70 2.6 SW 11 19 6 10 1024.8 - 0.0
29/10:00am 11.9 10.2 8.2 78 1.9 SW 7 9 4 5 1024.7 - 0.0
29/09:30am 11.5 11.3 8.9 84 1.3 CALM 0 0 0 0 1024.7 - 0.0
29/09:00am 9.9 9.8 9.3 96 0.3 CALM 0 0 0 0 1025.0 1025.1 0.2
29/08:30am 9.5 9.4 9.4 99 0.1 CALM 0 0 0 0 1024.7 - 0.2
29/08:00am 9.4 8.9 9.3 99 0.1 WSW 2 7 1 4 1024.3 - 0.2
29/07:30am 9.3 8.4 9.2 99 0.1 SW 4 7 2 4 1024.1 - 0.2
29/07:00am 9.3 7.4 9.2 99 0.1 SW 9 15 5 8 1023.9 - 0.2
29/06:30am 8.6 8.3 8.5 99 0.0 CALM 0 0 0 0 1023.5 - 0.0
29/06:00am 8.4 8.0 8.3 99 0.0 CALM 0 0 0 0 1023.3 1023.3 0.0
29/05:30am 8.2 7.8 8.1 99 0.0 CALM 0 0 0 0 1023.1 - 0.0
29/05:00am 8.1 7.6 8.0 99 0.0 CALM 0 0 0 0 1022.8 - 0.0
29/04:30am 8.5 8.1 8.4 99 0.0 CALM 0 0 0 0 1022.6 - 0.0
29/04:00am 8.8 8.5 8.7 99 0.0 CALM 0 0 0 0 1022.4 - 0.0
29/03:30am 9.2 9.0 8.9 98 0.2 CALM 0 0 0 0 1022.3 - 0.0
29/03:00am 9.9 9.8 9.4 97 0.3 CALM 0 0 0 0 1022.3 1022.3 0.0
29/02:30am 10.2 10.2 9.7 97 0.3 CALM 0 0 0 0 1022.3 - 0.0
29/02:00am 10.4 10.4 9.9 97 0.3 CALM 0 0 0 0 1022.3 - 0.0
29/01:30am 10.3 10.3 9.8 97 0.3 CALM 0 6 0 3 1022.3 - 0.0
29/01:00am 10.3 10.0 10.0 98 0.2 SW 2 7 1 4 1022.5 - 0.0
29/12:30am 10.1 10.1 9.9 99 0.1 CALM 0 0 0 0 1022.2 - 0.0
29/12:00am 9.6 9.4 9.1 97 0.3 CALM 0 0 0 0 1022.4 1022.5 0.0
 
Date/Time
CST
Temp
°C
App
Temp
°C
Dew
Point
Rel
Hum
%
Delta-T
°C
Wind Press
QNH
hPa
Press
MSL
hPa
Rain
since 9 am
mm
Dir
 
Spd
km/h
Gust
km/h
Spd
kts
Gust
kts
28/11:30pm 10.2 10.2 9.7 97 0.3 CALM 0 0 0 0 1022.1 - 0.0
28/11:00pm 10.7 9.6 10.1 96 0.3 SW 6 11 3 6 1022.4 - 0.0
28/10:30pm 11.1 9.5 10.2 94 0.5 SW 9 13 5 7 1022.4 - 0.0
28/10:00pm 11.3 9.6 10.0 92 0.7 WSW 9 15 5 8 1022.2 - 0.0
28/09:30pm 11.5 9.7 9.6 88 1.0 WSW 9 15 5 8 1021.9 - 0.0
28/09:00pm 11.4 10.1 9.3 87 1.1 WSW 6 13 3 7 1021.7 1021.7 0.0
28/08:30pm 10.8 9.4 8.9 88 1.0 W 6 9 3 5 1021.4 - 0.0
28/08:00pm 11.4 9.9 9.0 85 1.2 SW 7 13 4 7 1021.2 - 0.0
28/07:30pm 12.2 10.6 8.9 80 1.7 W 7 15 4 8 1020.9 - 0.0
28/07:00pm 12.7 10.5 9.2 79 1.8 W 11 17 6 9 1020.6 - 0.0
28/06:30pm 12.8 10.5 8.9 77 2.0 W 11 15 6 8 1020.2 - 0.0
28/06:00pm 13.1 10.6 8.4 73 2.4 W 11 17 6 9 1019.9 1019.9 0.0
28/05:30pm 13.4 10.8 7.8 69 2.8 W 11 17 6 9 1019.9 - 0.0
28/05:00pm 14.0 11.8 8.0 67 3.0 W 9 17 5 9 1019.7 - 0.0
28/04:30pm 14.8 11.7 7.1 60 3.9 W 13 28 7 15 1019.4 - 0.0
28/04:00pm 15.4 11.5 6.9 57 4.3 W 17 32 9 17 1019.2 - 0.0
28/03:30pm 15.7 11.3 6.7 55 4.5 W 19 30 10 16 1018.9 - 0.0
28/03:00pm 15.9 11.3 6.3 53 4.8 W 20 33 11 18 1019.0 1019.0 0.0
28/02:30pm 16.7 12.2 7.1 53 4.9 W 20 32 11 17 1019.0 - 0.0
28/02:00pm 16.5 12.3 7.4 55 4.6 W 19 32 10 17 1018.8 - 0.0
28/01:30pm 16.8 12.8 8.2 57 4.5 W 19 37 10 20 1019.1 - 0.0
28/01:00pm 16.8 12.7 8.0 56 4.5 WNW 19 30 10 16 1019.5 - 0.0
28/12:30pm 16.4 12.4 8.4 59 4.2 WNW 19 28 10 15 1019.8 - 0.0
28/12:00pm 16.1 13.4 10.4 69 3.1 W 15 24 8 13 1019.9 1019.9 0.0
28/11:30am 16.1 13.5 10.6 70 3.0 WNW 15 22 8 12 1020.4 - 0.0
28/11:00am 15.4 13.1 10.6 73 2.6 NW 13 19 7 10 1020.7 - 0.0
28/10:30am 14.4 12.5 10.6 78 2.0 NW 11 15 6 8 1020.9 - 0.0
28/10:00am 14.1 12.6 10.7 80 1.8 WNW 9 17 5 9 1020.9 - 0.0
28/09:30am 12.7 12.6 9.5 81 1.7 CALM 0 0 0 0 1020.9 - 0.0
28/09:00am 10.9 10.6 8.5 85 1.2 CALM 0 0 0 0 1020.8 1020.8 0.2
28/08:30am 8.8 8.5 8.5 98 0.1 CALM 0 0 0 0 1020.6 - 0.2
28/08:00am 6.2 5.3 6.1 99 0.0 CALM 0 0 0 0 1020.2 - 0.2
28/07:30am 5.9 4.9 5.8 99 0.0 CALM 0 0 0 0 1019.8 - 0.2
28/07:00am 6.0 5.1 5.9 99 0.0 CALM 0 0 0 0 1019.6 - 0.2
28/06:30am 5.2 4.1 5.1 99 0.0 CALM 0 0 0 0 1019.8 - 0.2
28/06:00am 5.0 3.9 4.9 99 0.0 CALM 0 0 0 0 1019.1 1019.1 0.2
28/05:30am 4.9 3.7 4.8 99 0.0 CALM 0 0 0 0 1019.0 - 0.2
28/05:00am 5.1 4.0 5.0 99 0.0 CALM 0 0 0 0 1018.9 - 0.2
28/04:30am 5.3 4.2 5.2 99 0.0 CALM 0 0 0 0 1018.9 - 0.2
28/04:00am 5.7 4.7 5.4 98 0.1 CALM 0 0 0 0 1018.8 - 0.2
28/03:30am 6.1 5.1 5.8 98 0.1 CALM 0 0 0 0 1018.8 - 0.2
28/03:00am 6.3 5.4 5.9 97 0.2 CALM 0 0 0 0 1018.8 1018.8 0.2
28/02:30am 6.3 5.3 5.7 96 0.3 CALM 0 0 0 0 1018.8 - 0.2
28/02:00am 6.7 5.8 6.1 96 0.3 CALM 0 0 0 0 1019.1 - 0.2
28/01:30am 6.6 5.8 6.3 98 0.1 CALM 0 0 0 0 1019.6 - 0.2
28/01:00am 6.0 5.0 5.7 98 0.1 CALM 0 0 0 0 1019.2 - 0.2
28/12:30am 5.4 4.3 5.0 97 0.2 CALM 0 0 0 0 1019.4 - 0.2
28/12:00am 5.7 4.6 5.1 96 0.3 CALM 0 0 0 0 1019.4 1019.4 0.2
 
Date/Time
CST
Temp
°C
App
Temp
°C
Dew
Point
Rel
Hum
%
Delta-T
°C
Wind Press
QNH
hPa
Press
MSL
hPa
Rain
since 9 am
mm
Dir
 
Spd
km/h
Gust
km/h
Spd
kts
Gust
kts
27/11:30pm 5.7 4.6 5.1 96 0.3 CALM 0 0 0 0 1019.7 - 0.2
27/11:00pm 5.7 4.6 5.1 96 0.3 CALM 0 0 0 0 1019.9 - 0.2
27/10:30pm 5.9 4.8 5.2 95 0.3 CALM 0 0 0 0 1019.9 - 0.2
27/10:00pm 6.1 5.0 5.2 94 0.4 CALM 0 0 0 0 1020.0 - 0.2
27/09:30pm 6.3 5.3 5.4 94 0.4 CALM 0 0 0 0 1020.1 - 0.2
27/09:00pm 6.5 5.4 5.3 92 0.5 CALM 0 0 0 0 1020.1 1020.1 0.2
27/08:30pm 7.0 5.9 5.3 89 0.8 CALM 0 0 0 0 1020.1 - 0.2
27/08:00pm 7.9 7.0 5.9 87 0.9 CALM 0 0 0 0 1019.9 - 0.2
27/07:30pm 8.5 7.5 5.8 83 1.3 CALM 0 0 0 0 1020.0 - 0.2
27/07:00pm 9.4 8.5 6.1 80 1.6 CALM 0 0 0 0 1019.9 - 0.2
27/06:30pm 10.1 8.1 6.1 76 1.9 E 6 7 3 4 1019.7 - 0.2
27/06:00pm 11.9 11.0 6.2 68 2.7 CALM 0 0 0 0 1019.6 1019.6 0.2
27/05:30pm 13.3 12.5 6.4 63 3.4 CALM 0 0 0 0 1019.5 - 0.2
27/05:00pm 16.5 15.0 4.9 46 5.6 WSW 2 9 1 5 1019.4 - 0.2
27/04:30pm 17.7 14.5 5.0 43 6.2 W 11 15 6 8 1019.4 - 0.2
27/04:00pm 18.6 15.3 4.4 39 6.9 W 11 15 6 8 1019.4 - 0.2
27/03:30pm 18.9 14.9 3.1 35 7.5 W 13 22 7 12 1019.5 - 0.2
27/03:00pm 19.0 14.9 2.4 33 7.8 WNW 13 20 7 11 1019.5 1019.5 0.2
27/02:30pm 19.0 15.2 4.0 37 7.3 NW 13 20 7 11 1019.6 - 0.2
27/02:00pm 18.7 14.7 2.9 35 7.5 NW 13 20 7 11 1019.6 - 0.0
27/01:30pm 18.8 15.1 6.3 44 6.3 NW 15 26 8 14 1019.8 - 0.0
27/01:00pm 18.4 14.3 6.3 45 6.1 WNW 17 24 9 13 1020.2 - 0.0
27/12:30pm 18.3 15.1 8.6 53 5.1 NW 15 20 8 11 1020.6 - 0.0
27/12:00pm 17.9 14.9 7.6 51 5.3 WNW 13 20 7 11 1020.9 1020.9 0.0
27/11:30am 17.8 15.6 9.4 58 4.5 NW 11 20 6 11 1021.4 - 0.0
27/11:00am 17.1 15.3 10.7 66 3.5 N 11 13 6 7 1021.8 - 0.0
27/10:30am 16.0 14.7 10.1 68 3.2 N 7 11 4 6 1022.1 - 0.0
27/10:00am 14.4 12.9 9.2 71 2.7 NNW 7 9 4 5 1022.2 - 0.0
27/09:30am 13.8 13.0 9.5 75 2.2 W 4 9 2 5 1022.1 - 0.0
27/09:00am 12.5 12.2 8.8 78 1.9 CALM 0 0 0 0 1022.1 1022.1 0.2
27/08:30am 10.5 10.4 9.6 94 0.5 CALM 0 0 0 0 1022.1 - 0.2
27/08:00am 8.0 7.5 7.9 99 0.0 CALM 0 0 0 0 1021.9 - 0.2
27/07:30am 5.9 4.9 5.8 99 0.0 CALM 0 0 0 0 1021.7 - 0.2
27/07:00am 6.0 5.1 5.9 99 0.0 CALM 0 0 0 0 1021.5 - 0.2
27/06:30am 5.8 4.8 5.7 99 0.0 CALM 0 0 0 0 1021.3 - 0.2
27/06:00am 6.0 5.1 5.9 99 0.0 CALM 0 0 0 0 1021.0 1021.0 0.2
27/05:30am 6.2 5.3 6.1 99 0.0 CALM 0 0 0 0 1021.0 - 0.2
27/05:00am 6.7 5.9 6.6 99 0.0 CALM 0 0 0 0 1020.9 - 0.2
27/04:30am 7.0 6.3 6.9 99 0.0 CALM 0 0 0 0 1020.9 - 0.2
27/04:00am 7.0 6.3 6.9 99 0.0 CALM 0 0 0 0 1020.9 - 0.2
27/03:30am 7.3 6.7 7.2 99 0.0 CALM 0 0 0 0 1021.1 - 0.2
27/03:00am 7.5 6.9 7.4 99 0.0 CALM 0 0 0 0 1021.2 1021.2 0.2
27/02:30am 7.9 7.4 7.8 99 0.0 CALM 0 0 0 0 1021.4 - 0.2
27/02:00am 8.4 8.0 8.1 98 0.1 CALM 0 0 0 0 1021.6 - 0.2
27/01:30am 8.9 8.6 8.5 97 0.2 CALM 0 0 0 0 1021.6 - 0.2
27/01:00am 9.6 9.4 9.1 97 0.3 CALM 0 0 0 0 1021.6 - 0.2
27/12:30am 9.9 9.8 9.4 97 0.3 CALM 0 0 0 0 1021.9 - 0.2
27/12:00am 9.9 9.7 9.0 94 0.5 CALM 0 0 0 0 1022.1 1022.1 0.2
 
Date/Time
CST
Temp
°C
App
Temp
°C
Dew
Point
Rel
Hum
%
Delta-T
°C
Wind Press
QNH
hPa
Press
MSL
hPa
Rain
since 9 am
mm
Dir
 
Spd
km/h
Gust
km/h
Spd
kts
Gust
kts
26/11:30pm 10.4 10.2 9.2 92 0.6 CALM 0 0 0 0 1022.2 - 0.2
26/11:00pm 11.4 11.4 9.7 89 0.9 CALM 0 0 0 0 1022.4 - 0.2
26/10:30pm 11.5 10.1 8.9 84 1.3 WNW 6 11 3 6 1022.8 - 0.0
26/10:00pm 11.4 11.0 8.3 81 1.6 CALM 0 0 0 0 1022.6 - 0.0
26/09:30pm 11.9 11.6 8.6 80 1.7 CALM 0 0 0 0 1022.7 - 0.0
26/09:00pm 11.8 11.5 8.6 81 1.6 CALM 0 0 0 0 1022.8 1022.9 0.0
26/08:30pm 12.7 11.2 8.4 75 2.2 ENE 6 7 3 4 1022.6 - 0.0
26/08:00pm 13.1 12.8 8.6 74 2.3 CALM 0 0 0 0 1022.8 - 0.0
26/07:30pm 12.0 11.6 8.3 78 1.9 CALM 0 0 0 0 1022.7 - 0.0
26/07:00pm 13.0 12.6 8.3 73 2.4 CALM 0 0 0 0 1022.5 - 0.0
26/06:30pm 13.7 13.3 8.1 69 2.8 CALM 0 0 0 0 1022.3 - 0.0
26/06:00pm 14.9 14.4 7.9 63 3.6 CALM 0 4 0 2 1022.3 1022.3 0.0
26/05:30pm 15.6 14.0 8.1 61 3.9 NW 6 9 3 5 1022.2 - 0.0
26/05:00pm 16.7 14.9 8.1 57 4.5 NNW 7 9 4 5 1022.0 - 0.0
26/04:30pm 17.6 14.3 7.9 53 5.0 NW 15 24 8 13 1022.0 - 0.0
26/04:00pm 18.9 16.5 8.6 51 5.5 NNW 11 17 6 9 1021.8 - 0.0
26/03:30pm 17.8 15.3 8.4 54 4.9 NNW 11 19 6 10 1021.9 - 0.0
26/03:00pm 17.7 15.1 7.7 52 5.1 NNW 11 17 6 9 1022.0 1022.0 0.0
26/02:30pm 18.5 15.3 8.5 52 5.3 NNW 15 20 8 11 1022.2 - 0.0
26/02:00pm 17.9 14.5 7.6 51 5.3 NNW 15 24 8 13 1022.5 - 0.0

Other Formats:

Comma delimited format used in spreadsheet applications
http://www.bom.gov.au/fwo/IDS60801/IDS60801.95667.axf

JavaScript Object Notation format (JSON) in row-major order
http://www.bom.gov.au/fwo/IDS60801/IDS60801.95667.json